Terminal Aerodrome Forecast
Issued by NWS

Home | Current Version | Previous Version | Graphics & Text | Print | Product List | Glossary On
Versions: 1 2 3 4 5 6 7 8 9 10 11 12 13 14 15 16 17 18 19 20
000
FTUS43 KMPX 250200 AAA
TAFAXN
TAF AMD
KAXN 250222Z 2502/2524 32016KT P6SM FEW009
     FM250300 31011KT P6SM FEW050
     FM251500 23004KT P6SM OVC020
     FM252100 VRB03KT P6SM OVC012=

USA.gov is the U.S. government's official web portal to all federal, state and local government web resources and services.